createdAt,value
2019-03-09T00:01:39.001Z,95864.00
2019-03-09T00:07:08.262Z,95873.00
2019-03-09T00:12:37.532Z,95868.00
2019-03-09T00:18:06.816Z,95869.00
2019-03-09T00:23:53.983Z,95863.00
2019-03-09T00:29:27.601Z,95856.00
2019-03-09T00:34:56.877Z,95856.00
2019-03-09T00:40:26.256Z,95852.00
2019-03-09T00:45:55.515Z,95847.00
2019-03-09T00:51:29.788Z,95856.00
2019-03-09T00:57:01.388Z,95834.00
2019-03-09T01:02:30.644Z,95831.00
2019-03-09T01:07:59.930Z,95819.00
2019-03-09T01:13:29.210Z,95814.00
2019-03-09T01:18:59.493Z,95813.00
2019-03-09T01:24:29.932Z,95808.00
2019-03-09T01:29:59.194Z,95796.00
2019-03-09T01:35:28.479Z,95786.00
2019-03-09T01:40:57.744Z,95780.00
2019-03-09T01:46:27.024Z,95773.00
2019-03-09T01:51:56.295Z,95780.00
2019-03-09T01:57:25.572Z,95768.00
2019-03-09T02:02:54.850Z,95757.00
2019-03-09T02:08:24.111Z,95755.00
2019-03-09T02:13:53.390Z,95738.00
2019-03-09T02:19:22.655Z,95741.00
2019-03-09T02:24:51.919Z,95746.00
2019-03-09T02:30:21.332Z,95738.00
2019-03-09T02:35:50.615Z,95739.00
2019-03-09T02:41:19.860Z,95741.00
2019-03-09T02:46:51.075Z,95735.00
2019-03-09T02:52:20.349Z,95729.00
2019-03-09T02:57:50.623Z,95727.00
2019-03-09T03:03:19.889Z,95725.00
2019-03-09T03:08:49.161Z,95726.00
2019-03-09T03:14:18.425Z,95719.00
2019-03-09T03:19:47.702Z,95717.00
2019-03-09T03:25:16.962Z,95716.00
2019-03-09T03:30:46.246Z,95705.00
2019-03-09T03:36:15.550Z,95699.00
2019-03-09T03:41:45.791Z,95693.00
2019-03-09T03:47:18.144Z,95691.00
2019-03-09T03:52:47.788Z,95695.00
2019-03-09T03:58:17.166Z,95677.00
2019-03-09T04:03:46.578Z,95699.00
2019-03-09T04:09:15.982Z,95693.00
2019-03-09T04:14:45.251Z,95698.00
2019-03-09T04:20:14.650Z,95673.00
2019-03-09T04:25:44.009Z,95676.00
2019-03-09T04:31:13.723Z,95681.00
2019-03-09T04:36:43.326Z,95680.00
2019-03-09T04:42:13.547Z,95678.00
2019-03-09T04:48:02.149Z,95672.00
2019-03-09T04:53:31.433Z,95683.00
2019-03-09T04:59:01.655Z,95679.00
2019-03-09T05:04:40.707Z,95655.00
2019-03-09T05:10:14.482Z,95675.00
2019-03-09T05:15:45.731Z,95676.00
2019-03-09T05:21:14.995Z,95660.00
2019-03-09T05:26:50.091Z,95649.00
2019-03-09T05:32:38.779Z,95641.00
2019-03-09T05:38:08.197Z,95640.00
2019-03-09T05:43:43.483Z,95623.00
2019-03-09T05:49:12.849Z,95629.00
2019-03-09T05:54:42.247Z,95618.00
2019-03-09T06:00:14.616Z,95620.00
2019-03-09T06:05:49.618Z,95634.00
2019-03-09T06:11:25.161Z,95608.00
2019-03-09T06:16:54.669Z,95609.00
2019-03-09T06:22:24.324Z,95595.00
2019-03-09T06:27:53.847Z,95603.00
2019-03-09T06:33:25.597Z,95597.00
2019-03-09T06:39:02.323Z,95594.00
2019-03-09T06:44:31.628Z,95601.00
2019-03-09T06:50:03.938Z,95591.00
2019-03-09T06:55:34.900Z,95597.00
2019-03-09T07:01:20.422Z,95617.00
2019-03-09T07:06:49.970Z,95637.00
2019-03-09T07:12:19.518Z,95644.00
2019-03-09T07:17:49.093Z,95663.00
2019-03-09T07:23:18.747Z,95676.00
2019-03-09T07:28:48.137Z,95679.00
2019-03-09T07:34:26.919Z,95701.00
2019-03-09T07:39:56.367Z,95693.00
2019-03-09T07:45:25.864Z,95716.00
2019-03-09T07:50:55.378Z,95722.00
2019-03-09T07:56:24.962Z,95724.00
2019-03-09T08:01:54.465Z,95720.00
2019-03-09T08:07:23.973Z,95711.00
2019-03-09T08:12:53.496Z,95721.00
2019-03-09T08:18:22.958Z,95716.00
2019-03-09T08:23:52.624Z,95709.00
2019-03-09T08:29:22.057Z,95732.00
2019-03-09T08:34:51.580Z,95738.00
2019-03-09T08:40:26.263Z,95753.00
2019-03-09T08:45:56.071Z,95764.00
2019-03-09T08:51:25.890Z,95759.00
2019-03-09T08:56:55.307Z,95746.00
2019-03-09T09:02:24.939Z,95750.00
2019-03-09T09:07:56.256Z,95773.00
2019-03-09T09:13:26.880Z,95767.00
2019-03-09T09:18:56.325Z,95757.00
2019-03-09T09:24:25.941Z,95728.00
2019-03-09T09:29:55.701Z,95723.00
2019-03-09T09:35:25.397Z,95745.00
2019-03-09T09:40:55.178Z,95730.00
2019-03-09T09:46:25.059Z,95753.00
2019-03-09T09:51:55.964Z,95755.00
2019-03-09T09:57:25.762Z,95753.00
2019-03-09T10:02:55.640Z,95758.00
2019-03-09T10:08:25.340Z,95744.00
2019-03-09T10:13:58.469Z,95738.00
2019-03-09T10:19:28.033Z,95732.00
2019-03-09T10:24:57.500Z,95776.00
2019-03-09T10:30:27.114Z,95718.00
2019-03-09T10:35:59.560Z,95765.00
2019-03-09T10:41:30.483Z,95787.00
2019-03-09T10:46:59.994Z,95766.00
2019-03-09T10:52:29.506Z,95770.00
2019-03-09T10:58:01.719Z,95777.00
2019-03-09T11:03:31.148Z,95742.00
2019-03-09T11:09:19.764Z,95724.00
2019-03-09T11:14:50.018Z,95760.00
2019-03-09T11:20:20.994Z,95737.00
2019-03-09T11:25:50.671Z,95748.00
2019-03-09T11:31:20.194Z,95726.00
2019-03-09T11:36:51.370Z,95720.00
2019-03-09T11:42:23.021Z,95726.00
2019-03-09T11:47:52.665Z,95707.00
2019-03-09T11:53:22.909Z,95679.00
2019-03-09T11:59:14.531Z,95694.00
2019-03-09T12:04:47.056Z,95705.00
2019-03-09T12:10:15.561Z,95718.00
2019-03-09T12:15:44.891Z,95679.00
2019-03-09T12:21:14.332Z,95685.00
2019-03-09T12:26:44.134Z,95653.00
2019-03-09T12:32:14.674Z,95636.00
2019-03-09T12:37:45.240Z,95610.00
2019-03-09T12:43:14.758Z,95620.00
2019-03-09T12:48:44.195Z,95608.00
2019-03-09T12:54:13.655Z,95635.00
2019-03-09T12:59:43.093Z,95608.00
2019-03-09T13:05:12.710Z,95601.00
2019-03-09T13:10:42.128Z,95590.00
2019-03-09T13:16:11.605Z,95591.00
2019-03-09T13:21:41.002Z,95598.00
2019-03-09T13:27:13.214Z,95606.00
2019-03-09T13:32:42.804Z,95593.00
2019-03-09T13:38:12.291Z,95610.00
2019-03-09T13:43:42.014Z,95605.00
2019-03-09T13:49:13.504Z,95599.00
2019-03-09T13:54:43.779Z,95614.00
2019-03-09T14:00:18.325Z,95627.00
2019-03-09T14:05:54.715Z,95644.00
2019-03-09T14:11:24.323Z,95645.00
2019-03-09T14:16:53.911Z,95628.00
2019-03-09T14:22:23.792Z,95627.00
2019-03-09T14:27:53.473Z,95613.00
2019-03-09T14:33:24.184Z,95612.00
2019-03-09T14:38:56.368Z,95624.00
2019-03-09T14:44:25.856Z,95603.00
2019-03-09T14:49:56.540Z,95600.00
2019-03-09T14:55:26.063Z,95605.00
2019-03-09T15:00:56.765Z,95570.00
2019-03-09T15:06:26.373Z,95572.00
2019-03-09T15:11:56.478Z,95535.00
2019-03-09T15:17:26.111Z,95530.00
2019-03-09T15:23:16.617Z,95521.00
2019-03-09T15:28:47.676Z,95508.00
2019-03-09T15:34:19.406Z,95505.00
2019-03-09T15:39:54.423Z,95517.00
2019-03-09T15:45:28.607Z,95526.00
2019-03-09T15:50:58.206Z,95514.00
2019-03-09T15:56:27.818Z,95521.00
2019-03-09T16:01:57.258Z,95536.00
2019-03-09T16:07:26.823Z,95525.00
2019-03-09T16:12:56.450Z,95510.00
2019-03-09T16:18:30.014Z,95500.00
2019-03-09T16:24:06.240Z,95517.00
2019-03-09T16:29:35.802Z,95488.00
2019-03-09T16:35:07.681Z,95519.00
2019-03-09T16:40:40.801Z,95562.00
2019-03-09T16:46:08.510Z,95532.00
2019-03-09T16:51:43.845Z,95552.00
2019-03-09T16:57:13.578Z,95529.00
2019-03-09T17:02:43.065Z,95542.00
2019-03-09T17:08:14.343Z,95532.00
2019-03-09T17:13:43.797Z,95520.00
2019-03-09T17:19:14.179Z,95524.00
2019-03-09T17:25:02.785Z,95515.00
2019-03-09T17:30:32.073Z,95551.00
2019-03-09T17:36:03.384Z,95562.00
2019-03-09T17:41:32.660Z,95556.00
2019-03-09T17:47:01.961Z,95564.00
2019-03-09T17:52:31.296Z,95568.00
2019-03-09T17:58:00.682Z,95580.00
2019-03-09T18:03:29.987Z,95557.00
2019-03-09T18:08:59.228Z,95572.00
2019-03-09T18:14:32.190Z,95555.00
2019-03-09T18:20:01.532Z,95516.00
2019-03-09T18:25:32.081Z,95553.00
2019-03-09T18:31:01.355Z,95565.00
2019-03-09T18:36:30.624Z,95529.00
2019-03-09T18:41:59.891Z,95552.00
2019-03-09T18:47:31.467Z,95541.00
2019-03-09T18:53:00.720Z,95501.00
2019-03-09T18:58:30.116Z,95592.00
2019-03-09T19:03:59.377Z,95584.00
2019-03-09T19:09:29.679Z,95574.00
2019-03-09T19:14:59.177Z,95571.00
2019-03-09T19:20:28.714Z,95574.00
2019-03-09T19:25:58.013Z,95602.00
2019-03-09T19:31:27.325Z,95648.00
2019-03-09T19:36:56.589Z,95640.00
2019-03-09T19:42:25.889Z,95619.00
2019-03-09T19:47:55.160Z,95621.00
2019-03-09T19:53:24.440Z,95615.00
2019-03-09T19:58:53.716Z,95635.00
2019-03-09T20:04:23.051Z,95661.00
2019-03-09T20:09:52.333Z,95645.00
2019-03-09T20:15:22.159Z,95668.00
2019-03-09T20:20:51.429Z,95673.00
2019-03-09T20:26:20.702Z,95671.00
2019-03-09T20:31:49.995Z,95691.00
2019-03-09T20:37:19.248Z,95680.00
2019-03-09T20:42:48.694Z,95693.00
2019-03-09T20:48:18.403Z,95715.00
2019-03-09T20:53:47.698Z,95707.00
2019-03-09T20:59:17.168Z,95725.00
2019-03-09T21:04:46.436Z,95708.00
2019-03-09T21:10:20.562Z,95742.00
2019-03-09T21:15:49.819Z,95746.00
2019-03-09T21:21:19.090Z,95737.00
2019-03-09T21:26:48.375Z,95739.00
2019-03-09T21:32:17.646Z,95743.00
2019-03-09T21:37:46.917Z,95760.00
2019-03-09T21:43:16.191Z,95768.00
2019-03-09T21:48:45.479Z,95777.00
2019-03-09T21:54:15.766Z,95781.00
2019-03-09T21:59:45.036Z,95764.00
2019-03-09T22:05:14.454Z,95775.00
2019-03-09T22:10:44.748Z,95793.00
2019-03-09T22:16:14.105Z,95795.00
2019-03-09T22:21:43.376Z,95775.00
2019-03-09T22:27:13.616Z,95783.00
2019-03-09T22:32:48.756Z,95784.00
2019-03-09T22:38:25.979Z,95781.00
2019-03-09T22:43:55.406Z,95761.00
2019-03-09T22:49:24.672Z,95766.00
2019-03-09T22:54:55.581Z,95764.00
2019-03-09T23:00:28.731Z,95763.00
2019-03-09T23:05:58.201Z,95760.00
2019-03-09T23:11:30.683Z,95741.00
2019-03-09T23:16:59.986Z,95758.00
2019-03-09T23:22:29.327Z,95758.00
2019-03-09T23:27:58.604Z,95750.00
2019-03-09T23:33:27.892Z,95751.00
2019-03-09T23:39:04.421Z,95752.00
2019-03-09T23:44:33.672Z,95766.00
2019-03-09T23:50:03.045Z,95759.00
2019-03-09T23:55:32.462Z,95746.00
